sensor_id;sensor_type;location;lat;lon;timestamp;P1;durP1;ratioP1;P2;durP2;ratioP2
7665;SDS011;3875;46.562;4.898;2023-06-14T00:00:17;5.23;;;4.47;;
7665;SDS011;3875;46.562;4.898;2023-06-14T00:02:43;5.47;;;4.43;;
7665;SDS011;3875;46.562;4.898;2023-06-14T00:05:09;5.70;;;4.80;;
7665;SDS011;3875;46.562;4.898;2023-06-14T00:07:39;6.50;;;4.83;;
7665;SDS011;3875;46.562;4.898;2023-06-14T00:10:07;5.47;;;4.90;;
7665;SDS011;3875;46.562;4.898;2023-06-14T00:12:34;4.90;;;4.40;;
7665;SDS011;3875;46.562;4.898;2023-06-14T00:15:00;4.70;;;4.03;;
7665;SDS011;3875;46.562;4.898;2023-06-14T00:17:28;5.20;;;4.33;;
7665;SDS011;3875;46.562;4.898;2023-06-14T00:19:58;7.83;;;4.57;;
7665;SDS011;3875;46.562;4.898;2023-06-14T00:22:24;6.00;;;4.87;;
7665;SDS011;3875;46.562;4.898;2023-06-14T00:24:51;5.90;;;4.40;;
7665;SDS011;3875;46.562;4.898;2023-06-14T00:27:17;5.60;;;4.70;;
7665;SDS011;3875;46.562;4.898;2023-06-14T00:29:42;5.40;;;4.87;;
7665;SDS011;3875;46.562;4.898;2023-06-14T00:32:08;6.93;;;4.80;;
7665;SDS011;3875;46.562;4.898;2023-06-14T00:34:34;6.60;;;5.10;;
7665;SDS011;3875;46.562;4.898;2023-06-14T00:37:00;5.93;;;4.43;;
7665;SDS011;3875;46.562;4.898;2023-06-14T00:39:26;7.47;;;5.13;;
7665;SDS011;3875;46.562;4.898;2023-06-14T00:41:51;8.33;;;5.00;;
7665;SDS011;3875;46.562;4.898;2023-06-14T00:44:17;7.33;;;4.60;;
7665;SDS011;3875;46.562;4.898;2023-06-14T00:46:44;10.53;;;5.00;;
7665;SDS011;3875;46.562;4.898;2023-06-14T00:49:10;5.17;;;4.37;;
7665;SDS011;3875;46.562;4.898;2023-06-14T00:51:40;5.17;;;4.67;;
7665;SDS011;3875;46.562;4.898;2023-06-14T00:54:06;5.20;;;4.40;;
7665;SDS011;3875;46.562;4.898;2023-06-14T00:56:32;5.03;;;4.53;;
7665;SDS011;3875;46.562;4.898;2023-06-14T00:58:58;6.17;;;4.60;;
7665;SDS011;3875;46.562;4.898;2023-06-14T01:01:23;4.83;;;4.33;;
7665;SDS011;3875;46.562;4.898;2023-06-14T01:03:49;7.17;;;4.57;;
7665;SDS011;3875;46.562;4.898;2023-06-14T01:06:35;6.37;;;4.83;;
7665;SDS011;3875;46.562;4.898;2023-06-14T01:09:27;9.67;;;4.77;;
7665;SDS011;3875;46.562;4.898;2023-06-14T01:13:06;6.73;;;4.40;;
7665;SDS011;3875;46.562;4.898;2023-06-14T01:15:12;8.90;;;4.70;;
7665;SDS011;3875;46.562;4.898;2023-06-14T01:17:38;5.53;;;5.03;;
7665;SDS011;3875;46.562;4.898;2023-06-14T01:20:09;6.67;;;4.97;;
7665;SDS011;3875;46.562;4.898;2023-06-14T01:22:45;5.67;;;4.50;;
7665;SDS011;3875;46.562;4.898;2023-06-14T01:25:16;4.93;;;4.43;;
7665;SDS011;3875;46.562;4.898;2023-06-14T01:27:45;4.97;;;4.57;;
7665;SDS011;3875;46.562;4.898;2023-06-14T01:30:15;6.10;;;4.90;;
7665;SDS011;3875;46.562;4.898;2023-06-14T01:32:42;12.00;;;4.83;;
7665;SDS011;3875;46.562;4.898;2023-06-14T01:35:09;5.30;;;4.57;;
7665;SDS011;3875;46.562;4.898;2023-06-14T01:37:35;5.93;;;4.63;;
7665;SDS011;3875;46.562;4.898;2023-06-14T01:40:02;5.73;;;4.17;;
7665;SDS011;3875;46.562;4.898;2023-06-14T01:42:31;6.13;;;4.50;;
7665;SDS011;3875;46.562;4.898;2023-06-14T01:45:02;6.63;;;4.70;;
7665;SDS011;3875;46.562;4.898;2023-06-14T01:47:32;9.63;;;4.97;;
7665;SDS011;3875;46.562;4.898;2023-06-14T01:49:59;6.37;;;4.70;;
7665;SDS011;3875;46.562;4.898;2023-06-14T01:52:24;4.80;;;4.30;;
7665;SDS011;3875;46.562;4.898;2023-06-14T01:54:50;7.10;;;4.43;;
7665;SDS011;3875;46.562;4.898;2023-06-14T01:57:16;8.37;;;4.70;;
7665;SDS011;3875;46.562;4.898;2023-06-14T01:59:42;6.43;;;4.70;;
7665;SDS011;3875;46.562;4.898;2023-06-14T02:02:08;7.90;;;5.30;;
7665;SDS011;3875;46.562;4.898;2023-06-14T02:04:33;5.80;;;4.50;;
7665;SDS011;3875;46.562;4.898;2023-06-14T02:06:59;6.03;;;4.50;;
7665;SDS011;3875;46.562;4.898;2023-06-14T02:09:25;4.93;;;4.03;;
7665;SDS011;3875;46.562;4.898;2023-06-14T02:11:51;4.73;;;4.23;;
7665;SDS011;3875;46.562;4.898;2023-06-14T02:14:16;9.47;;;4.87;;
7665;SDS011;3875;46.562;4.898;2023-06-14T02:16:43;7.97;;;4.67;;
7665;SDS011;3875;46.562;4.898;2023-06-14T02:19:17;5.20;;;4.67;;
7665;SDS011;3875;46.562;4.898;2023-06-14T02:21:44;5.73;;;4.70;;
7665;SDS011;3875;46.562;4.898;2023-06-14T02:24:10;5.37;;;4.00;;
7665;SDS011;3875;46.562;4.898;2023-06-14T02:26:36;6.90;;;4.90;;
7665;SDS011;3875;46.562;4.898;2023-06-14T02:29:06;8.97;;;4.50;;
7665;SDS011;3875;46.562;4.898;2023-06-14T02:31:34;10.27;;;4.57;;
7665;SDS011;3875;46.562;4.898;2023-06-14T02:34:00;9.23;;;4.23;;
7665;SDS011;3875;46.562;4.898;2023-06-14T02:36:26;7.73;;;4.40;;
7665;SDS011;3875;46.562;4.898;2023-06-14T02:38:54;8.00;;;4.80;;
7665;SDS011;3875;46.562;4.898;2023-06-14T02:41:22;7.80;;;4.70;;
7665;SDS011;3875;46.562;4.898;2023-06-14T02:43:51;5.87;;;4.40;;
7665;SDS011;3875;46.562;4.898;2023-06-14T02:46:18;7.43;;;4.40;;
7665;SDS011;3875;46.562;4.898;2023-06-14T02:48:44;8.97;;;4.37;;
7665;SDS011;3875;46.562;4.898;2023-06-14T02:51:10;6.37;;;4.33;;
7665;SDS011;3875;46.562;4.898;2023-06-14T02:53:35;6.63;;;4.50;;
7665;SDS011;3875;46.562;4.898;2023-06-14T02:56:02;5.70;;;4.47;;
7665;SDS011;3875;46.562;4.898;2023-06-14T02:58:29;5.43;;;4.23;;
7665;SDS011;3875;46.562;4.898;2023-06-14T03:00:55;6.13;;;4.53;;
7665;SDS011;3875;46.562;4.898;2023-06-14T03:03:21;6.80;;;4.87;;
7665;SDS011;3875;46.562;4.898;2023-06-14T03:05:49;5.07;;;4.57;;
7665;SDS011;3875;46.562;4.898;2023-06-14T03:08:16;5.40;;;4.27;;
7665;SDS011;3875;46.562;4.898;2023-06-14T03:10:45;6.10;;;4.27;;
7665;SDS011;3875;46.562;4.898;2023-06-14T03:13:11;4.93;;;4.40;;
7665;SDS011;3875;46.562;4.898;2023-06-14T03:15:46;8.13;;;4.67;;
7665;SDS011;3875;46.562;4.898;2023-06-14T03:18:14;7.63;;;4.63;;
7665;SDS011;3875;46.562;4.898;2023-06-14T03:20:40;7.37;;;5.07;;
7665;SDS011;3875;46.562;4.898;2023-06-14T03:23:07;6.13;;;4.90;;
7665;SDS011;3875;46.562;4.898;2023-06-14T03:25:34;9.13;;;5.63;;
7665;SDS011;3875;46.562;4.898;2023-06-14T03:28:03;7.00;;;5.00;;
7665;SDS011;3875;46.562;4.898;2023-06-14T03:30:30;7.33;;;5.07;;
7665;SDS011;3875;46.562;4.898;2023-06-14T03:32:56;6.23;;;5.00;;
7665;SDS011;3875;46.562;4.898;2023-06-14T03:35:23;5.60;;;4.90;;
7665;SDS011;3875;46.562;4.898;2023-06-14T03:37:49;5.10;;;4.60;;
7665;SDS011;3875;46.562;4.898;2023-06-14T03:40:16;6.53;;;5.27;;
7665;SDS011;3875;46.562;4.898;2023-06-14T03:42:43;7.00;;;4.97;;
7665;SDS011;3875;46.562;4.898;2023-06-14T03:45:09;6.07;;;5.33;;
7665;SDS011;3875;46.562;4.898;2023-06-14T03:47:35;6.93;;;4.83;;
7665;SDS011;3875;46.562;4.898;2023-06-14T03:50:01;6.90;;;5.10;;
7665;SDS011;3875;46.562;4.898;2023-06-14T03:52:30;7.60;;;5.63;;
7665;SDS011;3875;46.562;4.898;2023-06-14T03:54:57;8.20;;;5.40;;
7665;SDS011;3875;46.562;4.898;2023-06-14T03:57:25;5.73;;;5.13;;
7665;SDS011;3875;46.562;4.898;2023-06-14T03:59:51;8.23;;;4.43;;
7665;SDS011;3875;46.562;4.898;2023-06-14T04:02:17;6.53;;;4.93;;
7665;SDS011;3875;46.562;4.898;2023-06-14T04:04:44;4.90;;;4.40;;
7665;SDS011;3875;46.562;4.898;2023-06-14T04:07:10;6.67;;;4.80;;
7665;SDS011;3875;46.562;4.898;2023-06-14T04:09:37;6.63;;;5.23;;
7665;SDS011;3875;46.562;4.898;2023-06-14T04:12:03;6.50;;;5.10;;
7665;SDS011;3875;46.562;4.898;2023-06-14T04:14:30;5.00;;;4.60;;
7665;SDS011;3875;46.562;4.898;2023-06-14T04:16:57;7.13;;;5.30;;
7665;SDS011;3875;46.562;4.898;2023-06-14T04:19:23;5.43;;;4.80;;
7665;SDS011;3875;46.562;4.898;2023-06-14T04:21:49;5.40;;;4.90;;
7665;SDS011;3875;46.562;4.898;2023-06-14T04:24:15;7.67;;;5.40;;
7665;SDS011;3875;46.562;4.898;2023-06-14T04:26:41;8.87;;;5.57;;
7665;SDS011;3875;46.562;4.898;2023-06-14T04:29:09;7.37;;;5.77;;
7665;SDS011;3875;46.562;4.898;2023-06-14T04:31:44;9.13;;;6.17;;
7665;SDS011;3875;46.562;4.898;2023-06-14T04:34:10;7.87;;;5.70;;
7665;SDS011;3875;46.562;4.898;2023-06-14T04:36:40;5.77;;;5.17;;
7665;SDS011;3875;46.562;4.898;2023-06-14T04:39:17;5.90;;;5.07;;
7665;SDS011;3875;46.562;4.898;2023-06-14T04:41:43;5.30;;;4.80;;
7665;SDS011;3875;46.562;4.898;2023-06-14T04:44:09;8.03;;;5.23;;
7665;SDS011;3875;46.562;4.898;2023-06-14T04:46:35;10.43;;;4.83;;
7665;SDS011;3875;46.562;4.898;2023-06-14T04:49:16;5.57;;;4.93;;
7665;SDS011;3875;46.562;4.898;2023-06-14T04:51:43;6.80;;;5.00;;
7665;SDS011;3875;46.562;4.898;2023-06-14T04:54:10;6.17;;;4.90;;
7665;SDS011;3875;46.562;4.898;2023-06-14T04:56:40;8.97;;;4.77;;
7665;SDS011;3875;46.562;4.898;2023-06-14T04:59:07;5.73;;;4.93;;
7665;SDS011;3875;46.562;4.898;2023-06-14T05:01:34;9.63;;;5.27;;
7665;SDS011;3875;46.562;4.898;2023-06-14T05:04:00;5.93;;;4.30;;
7665;SDS011;3875;46.562;4.898;2023-06-14T05:06:26;7.60;;;5.03;;
7665;SDS011;3875;46.562;4.898;2023-06-14T05:08:52;8.23;;;4.90;;
7665;SDS011;3875;46.562;4.898;2023-06-14T05:11:18;6.27;;;5.20;;
7665;SDS011;3875;46.562;4.898;2023-06-14T05:13:44;5.67;;;5.00;;
7665;SDS011;3875;46.562;4.898;2023-06-14T05:16:10;5.80;;;4.77;;
7665;SDS011;3875;46.562;4.898;2023-06-14T05:18:36;5.70;;;5.10;;
7665;SDS011;3875;46.562;4.898;2023-06-14T05:21:03;7.87;;;5.60;;
7665;SDS011;3875;46.562;4.898;2023-06-14T05:23:31;7.47;;;5.10;;
7665;SDS011;3875;46.562;4.898;2023-06-14T05:25:57;5.70;;;4.57;;
7665;SDS011;3875;46.562;4.898;2023-06-14T05:28:23;6.53;;;4.97;;
7665;SDS011;3875;46.562;4.898;2023-06-14T05:30:49;7.30;;;4.73;;
7665;SDS011;3875;46.562;4.898;2023-06-14T05:33:16;5.67;;;5.07;;
7665;SDS011;3875;46.562;4.898;2023-06-14T05:35:42;6.87;;;4.97;;
7665;SDS011;3875;46.562;4.898;2023-06-14T05:38:07;6.97;;;4.90;;
7665;SDS011;3875;46.562;4.898;2023-06-14T05:40:33;7.00;;;4.73;;
7665;SDS011;3875;46.562;4.898;2023-06-14T05:42:59;4.97;;;4.53;;
7665;SDS011;3875;46.562;4.898;2023-06-14T05:45:25;6.10;;;4.87;;
7665;SDS011;3875;46.562;4.898;2023-06-14T05:47:50;5.20;;;4.70;;
7665;SDS011;3875;46.562;4.898;2023-06-14T05:50:17;6.00;;;5.40;;
7665;SDS011;3875;46.562;4.898;2023-06-14T05:52:43;5.27;;;4.60;;
7665;SDS011;3875;46.562;4.898;2023-06-14T05:55:08;6.07;;;4.37;;
7665;SDS011;3875;46.562;4.898;2023-06-14T05:57:36;11.97;;;5.40;;
7665;SDS011;3875;46.562;4.898;2023-06-14T06:00:03;7.40;;;5.27;;
7665;SDS011;3875;46.562;4.898;2023-06-14T06:02:42;8.83;;;4.87;;
7665;SDS011;3875;46.562;4.898;2023-06-14T06:05:08;5.80;;;5.17;;
7665;SDS011;3875;46.562;4.898;2023-06-14T06:07:35;8.07;;;5.13;;
7665;SDS011;3875;46.562;4.898;2023-06-14T06:10:02;5.93;;;5.27;;
7665;SDS011;3875;46.562;4.898;2023-06-14T06:12:28;8.43;;;5.30;;
7665;SDS011;3875;46.562;4.898;2023-06-14T06:14:54;6.80;;;4.97;;
7665;SDS011;3875;46.562;4.898;2023-06-14T06:17:20;8.00;;;5.07;;
7665;SDS011;3875;46.562;4.898;2023-06-14T06:19:45;6.67;;;5.20;;
7665;SDS011;3875;46.562;4.898;2023-06-14T06:22:11;5.97;;;4.70;;
7665;SDS011;3875;46.562;4.898;2023-06-14T06:24:37;5.77;;;5.07;;
7665;SDS011;3875;46.562;4.898;2023-06-14T06:27:03;8.30;;;5.07;;
7665;SDS011;3875;46.562;4.898;2023-06-14T06:29:29;8.53;;;5.10;;
7665;SDS011;3875;46.562;4.898;2023-06-14T06:31:54;7.80;;;5.50;;
7665;SDS011;3875;46.562;4.898;2023-06-14T06:34:21;6.40;;;5.67;;
7665;SDS011;3875;46.562;4.898;2023-06-14T06:36:47;7.57;;;5.40;;
7665;SDS011;3875;46.562;4.898;2023-06-14T06:39:13;5.57;;;4.90;;
7665;SDS011;3875;46.562;4.898;2023-06-14T06:41:39;8.03;;;5.10;;
7665;SDS011;3875;46.562;4.898;2023-06-14T06:44:06;5.67;;;4.90;;
7665;SDS011;3875;46.562;4.898;2023-06-14T06:46:32;7.73;;;5.53;;
7665;SDS011;3875;46.562;4.898;2023-06-14T06:48:58;6.13;;;5.47;;
7665;SDS011;3875;46.562;4.898;2023-06-14T06:51:25;6.43;;;5.20;;
7665;SDS011;3875;46.562;4.898;2023-06-14T06:53:53;5.93;;;5.33;;
7665;SDS011;3875;46.562;4.898;2023-06-14T06:56:20;7.80;;;5.30;;
7665;SDS011;3875;46.562;4.898;2023-06-14T06:58:48;5.57;;;5.00;;
7665;SDS011;3875;46.562;4.898;2023-06-14T07:01:14;6.70;;;5.20;;
7665;SDS011;3875;46.562;4.898;2023-06-14T07:03:41;7.03;;;5.13;;
7665;SDS011;3875;46.562;4.898;2023-06-14T07:06:06;7.27;;;5.50;;
7665;SDS011;3875;46.562;4.898;2023-06-14T07:08:32;6.23;;;5.30;;
7665;SDS011;3875;46.562;4.898;2023-06-14T07:10:58;8.63;;;5.37;;
7665;SDS011;3875;46.562;4.898;2023-06-14T07:13:23;8.37;;;6.43;;
7665;SDS011;3875;46.562;4.898;2023-06-14T07:15:49;5.33;;;4.83;;
7665;SDS011;3875;46.562;4.898;2023-06-14T07:18:15;5.73;;;5.07;;
7665;SDS011;3875;46.562;4.898;2023-06-14T07:20:41;6.43;;;5.03;;
7665;SDS011;3875;46.562;4.898;2023-06-14T07:23:08;6.10;;;5.53;;
7665;SDS011;3875;46.562;4.898;2023-06-14T07:25:33;6.13;;;4.73;;
7665;SDS011;3875;46.562;4.898;2023-06-14T07:27:59;5.40;;;4.90;;
7665;SDS011;3875;46.562;4.898;2023-06-14T07:30:25;8.83;;;5.00;;
7665;SDS011;3875;46.562;4.898;2023-06-14T07:32:52;6.37;;;5.20;;
7665;SDS011;3875;46.562;4.898;2023-06-14T07:35:19;6.77;;;5.47;;
7665;SDS011;3875;46.562;4.898;2023-06-14T07:37:45;9.03;;;5.63;;
7665;SDS011;3875;46.562;4.898;2023-06-14T07:40:12;5.60;;;5.10;;
7665;SDS011;3875;46.562;4.898;2023-06-14T07:42:38;6.10;;;5.17;;
7665;SDS011;3875;46.562;4.898;2023-06-14T07:45:04;10.47;;;5.20;;
7665;SDS011;3875;46.562;4.898;2023-06-14T07:47:31;5.87;;;4.93;;
7665;SDS011;3875;46.562;4.898;2023-06-14T07:49:57;7.13;;;4.80;;
7665;SDS011;3875;46.562;4.898;2023-06-14T07:52:22;5.17;;;4.63;;
7665;SDS011;3875;46.562;4.898;2023-06-14T07:54:48;5.43;;;4.70;;
7665;SDS011;3875;46.562;4.898;2023-06-14T07:57:14;7.03;;;4.93;;
7665;SDS011;3875;46.562;4.898;2023-06-14T07:59:40;6.17;;;5.57;;
7665;SDS011;3875;46.562;4.898;2023-06-14T08:02:06;6.20;;;5.10;;
7665;SDS011;3875;46.562;4.898;2023-06-14T08:04:31;9.43;;;7.03;;
7665;SDS011;3875;46.562;4.898;2023-06-14T08:06:58;6.45;;;5.22;;
7665;SDS011;3875;46.562;4.898;2023-06-14T08:09:24;6.77;;;5.10;;
7665;SDS011;3875;46.562;4.898;2023-06-14T08:11:50;10.03;;;5.57;;
7665;SDS011;3875;46.562;4.898;2023-06-14T08:14:16;8.07;;;5.90;;
7665;SDS011;3875;46.562;4.898;2023-06-14T08:16:41;7.93;;;5.40;;
7665;SDS011;3875;46.562;4.898;2023-06-14T08:19:07;7.90;;;5.53;;
7665;SDS011;3875;46.562;4.898;2023-06-14T08:21:33;6.97;;;5.30;;
7665;SDS011;3875;46.562;4.898;2023-06-14T08:24:01;5.70;;;5.20;;
7665;SDS011;3875;46.562;4.898;2023-06-14T08:26:28;6.10;;;5.50;;
7665;SDS011;3875;46.562;4.898;2023-06-14T08:28:55;6.20;;;5.60;;
7665;SDS011;3875;46.562;4.898;2023-06-14T08:31:21;7.40;;;4.77;;
7665;SDS011;3875;46.562;4.898;2023-06-14T08:33:47;7.77;;;5.27;;
7665;SDS011;3875;46.562;4.898;2023-06-14T08:36:12;8.97;;;4.90;;
7665;SDS011;3875;46.562;4.898;2023-06-14T08:38:39;5.77;;;4.57;;
7665;SDS011;3875;46.562;4.898;2023-06-14T08:41:05;7.93;;;5.63;;
7665;SDS011;3875;46.562;4.898;2023-06-14T08:43:34;5.80;;;5.20;;
7665;SDS011;3875;46.562;4.898;2023-06-14T08:46:03;8.13;;;5.60;;
7665;SDS011;3875;46.562;4.898;2023-06-14T08:48:31;7.27;;;4.80;;
7665;SDS011;3875;46.562;4.898;2023-06-14T08:51:01;5.30;;;4.57;;
7665;SDS011;3875;46.562;4.898;2023-06-14T08:53:30;6.13;;;4.70;;
7665;SDS011;3875;46.562;4.898;2023-06-14T08:55:59;8.27;;;4.90;;
7665;SDS011;3875;46.562;4.898;2023-06-14T08:58:27;5.63;;;4.63;;
7665;SDS011;3875;46.562;4.898;2023-06-14T09:00:56;7.30;;;4.57;;
7665;SDS011;3875;46.562;4.898;2023-06-14T09:03:24;6.43;;;4.27;;
7665;SDS011;3875;46.562;4.898;2023-06-14T09:05:55;5.03;;;4.23;;
7665;SDS011;3875;46.562;4.898;2023-06-14T09:08:24;6.40;;;4.37;;
7665;SDS011;3875;46.562;4.898;2023-06-14T09:10:51;5.40;;;4.83;;
7665;SDS011;3875;46.562;4.898;2023-06-14T09:13:17;5.93;;;4.60;;
7665;SDS011;3875;46.562;4.898;2023-06-14T09:15:43;11.60;;;4.63;;
7665;SDS011;3875;46.562;4.898;2023-06-14T09:18:09;6.07;;;4.43;;
7665;SDS011;3875;46.562;4.898;2023-06-14T09:20:36;8.05;;;5.03;;
7665;SDS011;3875;46.562;4.898;2023-06-14T09:23:02;5.35;;;4.68;;
7665;SDS011;3875;46.562;4.898;2023-06-14T09:25:30;4.80;;;4.33;;
7665;SDS011;3875;46.562;4.898;2023-06-14T09:27:56;6.37;;;4.43;;
7665;SDS011;3875;46.562;4.898;2023-06-14T09:30:21;7.80;;;4.10;;
7665;SDS011;3875;46.562;4.898;2023-06-14T09:32:47;5.30;;;4.30;;
7665;SDS011;3875;46.562;4.898;2023-06-14T09:35:14;6.23;;;4.30;;
7665;SDS011;3875;46.562;4.898;2023-06-14T09:37:42;11.80;;;4.23;;
7665;SDS011;3875;46.562;4.898;2023-06-14T09:40:09;5.85;;;4.10;;
7665;SDS011;3875;46.562;4.898;2023-06-14T09:42:35;8.50;;;4.23;;
7665;SDS011;3875;46.562;4.898;2023-06-14T09:45:02;4.57;;;4.17;;
7665;SDS011;3875;46.562;4.898;2023-06-14T09:47:29;6.47;;;4.80;;
7665;SDS011;3875;46.562;4.898;2023-06-14T09:49:54;5.60;;;4.50;;
7665;SDS011;3875;46.562;4.898;2023-06-14T09:52:21;5.90;;;4.67;;
7665;SDS011;3875;46.562;4.898;2023-06-14T09:54:47;8.27;;;4.90;;
7665;SDS011;3875;46.562;4.898;2023-06-14T09:57:17;5.65;;;4.35;;
7665;SDS011;3875;46.562;4.898;2023-06-14T09:59:47;7.30;;;3.90;;
7665;SDS011;3875;46.562;4.898;2023-06-14T10:02:26;6.88;;;3.63;;
7665;SDS011;3875;46.562;4.898;2023-06-14T10:05:08;4.90;;;3.60;;
7665;SDS011;3875;46.562;4.898;2023-06-14T10:07:42;5.40;;;4.60;;
7665;SDS011;3875;46.562;4.898;2023-06-14T10:10:10;7.25;;;4.53;;
7665;SDS011;3875;46.562;4.898;2023-06-14T10:12:36;4.03;;;3.63;;
7665;SDS011;3875;46.562;4.898;2023-06-14T10:15:03;8.70;;;4.68;;
7665;SDS011;3875;46.562;4.898;2023-06-14T10:17:42;4.32;;;3.40;;
7665;SDS011;3875;46.562;4.898;2023-06-14T10:23:12;4.90;;;3.50;;
7665;SDS011;3875;46.562;4.898;2023-06-14T10:25:42;6.75;;;3.30;;
7665;SDS011;3875;46.562;4.898;2023-06-14T10:33:48;6.72;;;4.10;;
7665;SDS011;3875;46.562;4.898;2023-06-14T10:41:29;6.38;;;4.00;;
7665;SDS011;3875;46.562;4.898;2023-06-14T10:46:49;3.95;;;3.15;;
7665;SDS011;3875;46.562;4.898;2023-06-14T10:49:18;4.35;;;3.45;;
7665;SDS011;3875;46.562;4.898;2023-06-14T10:51:45;3.88;;;3.53;;
7665;SDS011;3875;46.562;4.898;2023-06-14T10:54:23;5.03;;;2.65;;
7665;SDS011;3875;46.562;4.898;2023-06-14T10:56:51;4.20;;;3.30;;
7665;SDS011;3875;46.562;4.898;2023-06-14T10:59:18;7.03;;;3.60;;
7665;SDS011;3875;46.562;4.898;2023-06-14T11:01:58;6.68;;;3.55;;
7665;SDS011;3875;46.562;4.898;2023-06-14T11:13:07;3.20;;;2.90;;
7665;SDS011;3875;46.562;4.898;2023-06-14T11:15:34;3.75;;;3.20;;
7665;SDS011;3875;46.562;4.898;2023-06-14T11:18:02;3.33;;;2.92;;
7665;SDS011;3875;46.562;4.898;2023-06-14T11:20:30;6.32;;;3.10;;
7665;SDS011;3875;46.562;4.898;2023-06-14T11:22:57;3.50;;;3.20;;
7665;SDS011;3875;46.562;4.898;2023-06-14T11:25:23;3.75;;;2.80;;
7665;SDS011;3875;46.562;4.898;2023-06-14T11:27:50;4.93;;;2.95;;
7665;SDS011;3875;46.562;4.898;2023-06-14T11:30:16;4.05;;;2.80;;
7665;SDS011;3875;46.562;4.898;2023-06-14T11:32:45;4.63;;;2.80;;
7665;SDS011;3875;46.562;4.898;2023-06-14T11:35:11;3.42;;;3.13;;
7665;SDS011;3875;46.562;4.898;2023-06-14T11:37:37;6.20;;;3.40;;
7665;SDS011;3875;46.562;4.898;2023-06-14T11:40:03;4.07;;;3.00;;
7665;SDS011;3875;46.562;4.898;2023-06-14T11:42:34;3.88;;;3.10;;
7665;SDS011;3875;46.562;4.898;2023-06-14T11:45:01;4.70;;;3.30;;
7665;SDS011;3875;46.562;4.898;2023-06-14T11:47:38;4.20;;;3.35;;
7665;SDS011;3875;46.562;4.898;2023-06-14T11:50:07;5.50;;;2.70;;
7665;SDS011;3875;46.562;4.898;2023-06-14T11:52:34;6.53;;;2.90;;
7665;SDS011;3875;46.562;4.898;2023-06-14T11:55:01;5.45;;;3.20;;
7665;SDS011;3875;46.562;4.898;2023-06-14T11:57:30;3.60;;;3.30;;
7665;SDS011;3875;46.562;4.898;2023-06-14T11:59:58;3.70;;;2.90;;
7665;SDS011;3875;46.562;4.898;2023-06-14T12:02:24;5.35;;;3.17;;
7665;SDS011;3875;46.562;4.898;2023-06-14T12:04:52;3.65;;;2.90;;
7665;SDS011;3875;46.562;4.898;2023-06-14T12:07:19;4.07;;;2.92;;
7665;SDS011;3875;46.562;4.898;2023-06-14T12:12:20;4.60;;;3.30;;
7665;SDS011;3875;46.562;4.898;2023-06-14T12:14:46;3.85;;;3.53;;
7665;SDS011;3875;46.562;4.898;2023-06-14T12:17:13;5.13;;;3.00;;
7665;SDS011;3875;46.562;4.898;2023-06-14T12:19:42;3.08;;;2.78;;
7665;SDS011;3875;46.562;4.898;2023-06-14T12:22:11;7.05;;;2.92;;
7665;SDS011;3875;46.562;4.898;2023-06-14T12:24:38;3.65;;;3.10;;
7665;SDS011;3875;46.562;4.898;2023-06-14T12:27:04;4.25;;;2.88;;
7665;SDS011;3875;46.562;4.898;2023-06-14T12:29:31;6.60;;;3.10;;
7665;SDS011;3875;46.562;4.898;2023-06-14T12:31:57;5.88;;;3.30;;
7665;SDS011;3875;46.562;4.898;2023-06-14T12:34:23;4.35;;;3.28;;
7665;SDS011;3875;46.562;4.898;2023-06-14T12:36:55;6.40;;;3.47;;
7665;SDS011;3875;46.562;4.898;2023-06-14T12:39:21;4.32;;;3.20;;
7665;SDS011;3875;46.562;4.898;2023-06-14T12:41:47;4.20;;;3.20;;
7665;SDS011;3875;46.562;4.898;2023-06-14T12:44:13;3.45;;;2.97;;
7665;SDS011;3875;46.562;4.898;2023-06-14T12:46:40;3.45;;;2.88;;
7665;SDS011;3875;46.562;4.898;2023-06-14T12:49:09;3.10;;;2.80;;
7665;SDS011;3875;46.562;4.898;2023-06-14T12:51:36;3.78;;;3.10;;
7665;SDS011;3875;46.562;4.898;2023-06-14T12:54:03;3.08;;;2.72;;
7665;SDS011;3875;46.562;4.898;2023-06-14T12:56:29;3.60;;;3.28;;
7665;SDS011;3875;46.562;4.898;2023-06-14T12:58:54;4.53;;;3.13;;
7665;SDS011;3875;46.562;4.898;2023-06-14T13:01:20;6.38;;;3.33;;
7665;SDS011;3875;46.562;4.898;2023-06-14T13:03:46;7.18;;;3.55;;
7665;SDS011;3875;46.562;4.898;2023-06-14T13:06:12;7.68;;;3.10;;
7665;SDS011;3875;46.562;4.898;2023-06-14T13:08:38;4.45;;;3.20;;
7665;SDS011;3875;46.562;4.898;2023-06-14T13:11:04;5.55;;;3.63;;
7665;SDS011;3875;46.562;4.898;2023-06-14T13:13:30;4.93;;;3.22;;
7665;SDS011;3875;46.562;4.898;2023-06-14T13:15:55;5.85;;;3.25;;
7665;SDS011;3875;46.562;4.898;2023-06-14T13:18:21;5.25;;;3.40;;
7665;SDS011;3875;46.562;4.898;2023-06-14T13:20:47;3.08;;;2.85;;
7665;SDS011;3875;46.562;4.898;2023-06-14T13:23:13;4.35;;;3.47;;
7665;SDS011;3875;46.562;4.898;2023-06-14T13:25:41;4.53;;;3.25;;
7665;SDS011;3875;46.562;4.898;2023-06-14T13:28:06;3.72;;;3.25;;
7665;SDS011;3875;46.562;4.898;2023-06-14T13:30:32;3.58;;;3.10;;
7665;SDS011;3875;46.562;4.898;2023-06-14T13:32:59;3.60;;;2.60;;
7665;SDS011;3875;46.562;4.898;2023-06-14T13:35:25;3.97;;;3.55;;
7665;SDS011;3875;46.562;4.898;2023-06-14T13:37:51;3.70;;;3.08;;
7665;SDS011;3875;46.562;4.898;2023-06-14T13:40:17;3.85;;;3.50;;
7665;SDS011;3875;46.562;4.898;2023-06-14T13:42:43;3.42;;;3.10;;
7665;SDS011;3875;46.562;4.898;2023-06-14T13:45:10;5.88;;;3.25;;
7665;SDS011;3875;46.562;4.898;2023-06-14T13:47:36;4.18;;;3.42;;
7665;SDS011;3875;46.562;4.898;2023-06-14T13:50:03;6.18;;;3.10;;
7665;SDS011;3875;46.562;4.898;2023-06-14T13:52:29;4.00;;;3.53;;
7665;SDS011;3875;46.562;4.898;2023-06-14T13:54:55;6.72;;;3.65;;
7665;SDS011;3875;46.562;4.898;2023-06-14T13:57:20;5.80;;;3.22;;
7665;SDS011;3875;46.562;4.898;2023-06-14T13:59:46;4.80;;;4.10;;
7665;SDS011;3875;46.562;4.898;2023-06-14T14:02:13;4.78;;;3.63;;
7665;SDS011;3875;46.562;4.898;2023-06-14T14:04:40;4.20;;;3.80;;
7665;SDS011;3875;46.562;4.898;2023-06-14T14:07:06;5.45;;;3.55;;
7665;SDS011;3875;46.562;4.898;2023-06-14T14:09:32;5.05;;;3.45;;
7665;SDS011;3875;46.562;4.898;2023-06-14T14:12:02;3.33;;;3.03;;
7665;SDS011;3875;46.562;4.898;2023-06-14T14:14:29;3.75;;;3.45;;
7665;SDS011;3875;46.562;4.898;2023-06-14T14:16:57;4.35;;;3.75;;
7665;SDS011;3875;46.562;4.898;2023-06-14T14:19:23;7.20;;;3.28;;
7665;SDS011;3875;46.562;4.898;2023-06-14T14:21:49;4.05;;;3.38;;
7665;SDS011;3875;46.562;4.898;2023-06-14T14:24:15;5.68;;;3.78;;
7665;SDS011;3875;46.562;4.898;2023-06-14T14:26:41;5.57;;;3.67;;
7665;SDS011;3875;46.562;4.898;2023-06-14T14:29:07;4.50;;;3.17;;
7665;SDS011;3875;46.562;4.898;2023-06-14T14:31:36;5.32;;;3.40;;
7665;SDS011;3875;46.562;4.898;2023-06-14T14:34:02;5.30;;;3.55;;
7665;SDS011;3875;46.562;4.898;2023-06-14T14:36:27;5.75;;;3.45;;
7665;SDS011;3875;46.562;4.898;2023-06-14T14:38:55;4.00;;;3.70;;
7665;SDS011;3875;46.562;4.898;2023-06-14T14:41:20;6.28;;;3.53;;
7665;SDS011;3875;46.562;4.898;2023-06-14T14:43:46;7.60;;;3.00;;
7665;SDS011;3875;46.562;4.898;2023-06-14T14:46:13;7.53;;;3.47;;
7665;SDS011;3875;46.562;4.898;2023-06-14T14:48:39;3.22;;;2.95;;
7665;SDS011;3875;46.562;4.898;2023-06-14T14:51:04;3.28;;;2.97;;
7665;SDS011;3875;46.562;4.898;2023-06-14T14:53:30;5.13;;;3.80;;
7665;SDS011;3875;46.562;4.898;2023-06-14T14:55:56;3.72;;;3.35;;
7665;SDS011;3875;46.562;4.898;2023-06-14T14:58:21;8.48;;;3.83;;
7665;SDS011;3875;46.562;4.898;2023-06-14T15:00:47;4.63;;;3.50;;
7665;SDS011;3875;46.562;4.898;2023-06-14T15:03:13;3.97;;;3.33;;
7665;SDS011;3875;46.562;4.898;2023-06-14T15:05:39;7.85;;;3.72;;
7665;SDS011;3875;46.562;4.898;2023-06-14T15:08:05;5.43;;;3.13;;
7665;SDS011;3875;46.562;4.898;2023-06-14T15:10:40;4.50;;;3.67;;
7665;SDS011;3875;46.562;4.898;2023-06-14T15:13:09;4.72;;;3.70;;
7665;SDS011;3875;46.562;4.898;2023-06-14T15:15:36;5.15;;;3.63;;
7665;SDS011;3875;46.562;4.898;2023-06-14T15:18:02;4.00;;;3.60;;
7665;SDS011;3875;46.562;4.898;2023-06-14T15:20:28;6.55;;;3.80;;
7665;SDS011;3875;46.562;4.898;2023-06-14T15:22:54;4.25;;;3.40;;
7665;SDS011;3875;46.562;4.898;2023-06-14T15:25:26;3.40;;;3.10;;
7665;SDS011;3875;46.562;4.898;2023-06-14T15:27:52;5.07;;;3.97;;
7665;SDS011;3875;46.562;4.898;2023-06-14T15:30:18;8.77;;;3.88;;
7665;SDS011;3875;46.562;4.898;2023-06-14T15:32:44;3.90;;;3.40;;
7665;SDS011;3875;46.562;4.898;2023-06-14T15:35:10;6.13;;;3.70;;
7665;SDS011;3875;46.562;4.898;2023-06-14T15:37:37;5.30;;;3.67;;
7665;SDS011;3875;46.562;4.898;2023-06-14T15:40:03;8.20;;;3.72;;
7665;SDS011;3875;46.562;4.898;2023-06-14T15:42:30;4.10;;;3.70;;